Aeroporto :
LOGIN :

Iscrizione | Disclaimer

   EN    FR    IT 

 










Sommario :    VFR   VFR Marginale   IFR   IFR Intensivo   IFR Molto Intensivo
Visibilità : 
Base nubi : 
>= 8 km
>= 3000ft
5 / 8 km
1000 / 3000 ft
1500m / 5 km
500 / 1000 ft
800 / 1500m
200 / 500 ft
< 800m
< 200 ft
Simboli :   Temporali  Nebbia  Neve Forte  Precipitazioni Forti  Vento > 20 kt
SIGMETs :   Varie  Temporali  Ghiacco  Turbolenza  Onda orograficha  Ceneri Vulcaniche






- Altitudine del aeroporto : 20 ft
- Codice IATA : DLM


LTBS - Dalaman

ULTIMO METAR :
  • 031920Z 04005KT 9999 FEW030 BKN180 12/11 Q1017 NOSIG RMK RWY19 35005KT 320V020 2CU030 5CI180

METARs OBSOLETI :
  • 031850Z 02006KT 9999 FEW030 BKN180 12/11 Q1017 NOSIG
  • 031820Z 06004KT 9999 FEW018CB SCT025 BKN180 12/11 Q1017 NOSIG
  • 031750Z 07005KT 9999 VCTS FEW018CB SCT025 BKN180 13/11 Q1017 NOSIG RMK RWY19 02004KT 1CB018 3CU025 6CI180
  • 031720Z 10006KT 9999 VCTS FEW018CB SCT025 BKN180 13/12 Q1017 NOSIG RMK RWY19 06005KT 1CB018 3CU025 6CI180
  • 031650Z 07004KT 040V100 9999 VCTS FEW018CB SCT025 BKN180 13/12 Q1017 NOSIG RMK RWY19 32007KT 1CB018 3CU025 6CI180
  • 031620Z 06005KT 9999 VCTS FEW018CB SCT025 BKN180 13/12 Q1017 NOSIG RMK RWY19 35006KT 1CB018 3CU025 6CI180

TAF TAF LTBS
Valido dal 03 a 18 ore il 04 a 18 ore UTC


031640Z 0318/0418 VRB02KT 9999 SCT030 BKN120
BECMG 0400/0402 CAVOK
BECMG 0407/0409 21014KT SCT030
BECMG 0416/0418 VRB02KT



MetMap, La meteo Aeronautica in un colpo d'occhio ! - Copyright ORBIFLY Dicembre 2007 - Disclaimer

ORBIFLY MET'MAP TEAM :

Programmazione e sviluppo : Alexandra Zaïnal
Concezione : Baudouin d'Aumeries
Aiuto per la programmazione : Marc-Olivier Méhu
Supporto tecnico e logistico : Manuel Goepfert
Aiuto per la traduzione : Arnaldo La Scala

Contatto : metmap@orbifly.com




FONTI E CREDITI :

   NOAA